Time;durP1;ratioP1;P1;durP2;ratioP2;P2;SDS_P1;SDS_P2;PMS_P1;PMS_P2;Temp;Humidity;BMP_temperature;BMP_pressure;BME280_temperature;BME280_humidity;BME280_pressure;Samples;Min_cycle;Max_cycle;Signal;HPM_P1;HPM_P2
2023/01/18 00:01:22;;;;;;;22.22;9.38;;;;;;;2.00;65.49;101493.86;1851167;77;21036;-46
2023/01/18 00:03:51;;;;;;;27.60;9.95;;;;;;;2.01;65.34;101493.42;1852173;77;21040;-48
2023/01/18 00:06:20;;;;;;;18.57;8.63;;;;;;;1.99;65.34;101495.14;1866027;76;21473;-47
2023/01/18 00:08:49;;;;;;;25.02;7.03;;;;;;;1.97;65.22;101491.66;1883864;76;21108;-49
2023/01/18 00:11:18;;;;;;;22.85;8.23;;;;;;;1.93;65.19;101498.12;1883073;76;21035;-58
2023/01/18 00:13:47;;;;;;;13.60;6.92;;;;;;;1.90;65.24;101486.83;1836541;76;21201;-58
2023/01/18 00:16:21;;;;;;;15.20;7.05;;;;;;;1.84;65.81;101482.45;1834027;77;21213;-55
2023/01/18 00:18:57;;;;;;;19.05;8.58;;;;;;;1.81;66.96;101485.05;1840988;76;21106;-55
2023/01/18 00:21:27;;;;;;;18.55;8.70;;;;;;;1.73;67.66;101473.70;1838025;77;21096;-55
2023/01/18 00:23:56;;;;;;;19.30;7.05;;;;;;;1.68;68.11;101480.60;1850440;77;21530;-56
2023/01/18 00:26:25;;;;;;;21.02;8.83;;;;;;;1.65;67.72;101476.67;1836571;77;22001;-56
2023/01/18 00:28:56;;;;;;;18.10;8.88;;;;;;;1.63;67.43;101474.48;1845122;76;21178;-51
2023/01/18 00:31:24;;;;;;;16.87;9.18;;;;;;;1.63;67.29;101480.98;1852400;76;21060;-52
2023/01/18 00:33:53;;;;;;;23.92;12.43;;;;;;;1.65;67.08;101481.42;1837976;76;21156;-53
2023/01/18 00:36:21;;;;;;;23.85;12.73;;;;;;;1.65;66.83;101475.38;1851303;77;21109;-49
2023/01/18 00:38:52;;;;;;;45.88;20.37;;;;;;;1.65;66.69;101480.56;1854174;76;21081;-51
2023/01/18 00:41:22;;;;;;;30.85;15.30;;;;;;;1.63;66.53;101484.87;1864393;76;21051;-48
2023/01/18 00:43:52;;;;;;;28.38;13.72;;;;;;;1.61;66.52;101483.99;1850875;77;21078;-52
2023/01/18 00:46:26;;;;;;;28.85;14.90;;;;;;;1.58;66.49;101481.36;1851913;77;21178;-51
2023/01/18 00:48:57;;;;;;;39.45;20.20;;;;;;;1.57;66.48;101480.49;1890801;76;21112;-48
2023/01/18 00:51:26;;;;;;;37.78;20.32;;;;;;;1.57;66.52;101482.20;1890795;76;21062;-48
2023/01/18 00:53:54;;;;;;;39.78;21.87;;;;;;;1.58;66.48;101490.00;1884384;74;21164;-49
2023/01/18 00:56:23;;;;;;;32.88;18.75;;;;;;;1.57;66.39;101489.98;1883213;75;21031;-46
2023/01/18 00:58:52;;;;;;;30.35;15.40;;;;;;;1.53;66.42;101502.95;1869487;74;21206;-49
2023/01/18 01:01:20;;;;;;;35.35;18.52;;;;;;;1.47;66.44;101501.56;1873294;74;21171;-53
2023/01/18 01:06:45;;;;;;;30.57;13.65;;;;;;;1.44;66.67;101496.77;1880688;74;21556;-47
2023/01/18 01:09:25;;;;;;;21.68;9.08;;;;;;;1.44;66.54;101501.56;1883849;74;21115;-47
2023/01/18 01:26:08;;;;;;;19.90;9.48;;;;;;;1.48;67.30;101508.95;1881882;74;21050;-48
2023/01/18 01:28:38;;;;;;;27.50;13.70;;;;;;;1.51;67.26;101502.07;1874389;74;21491;-48
2023/01/18 01:31:09;;;;;;;32.70;17.32;;;;;;;1.53;67.16;101507.25;1877914;74;21197;-48
2023/01/18 01:33:38;;;;;;;40.83;20.62;;;;;;;1.50;67.15;101500.31;1881682;74;21183;-48
2023/01/18 01:36:13;;;;;;;35.80;15.78;;;;;;;1.48;67.24;101504.63;1873494;76;21141;-47
2023/01/18 01:38:42;;;;;;;35.55;13.72;;;;;;;1.46;67.21;101502.44;1881998;74;21134;-47
2023/01/18 01:41:33;;;;;;;27.35;14.10;;;;;;;1.46;67.12;101500.28;1875779;74;21232;-47
2023/01/18 01:44:05;;;;;;;23.90;13.40;;;;;;;1.46;67.14;101500.28;1877001;74;21137;-50
2023/01/18 01:46:40;;;;;;;35.55;16.20;;;;;;;1.45;67.04;101498.09;1869955;74;22476;-51
2023/01/18 01:49:38;;;;;;;40.33;16.32;;;;;;;1.43;66.87;101493.75;1879893;75;21127;-50
2023/01/18 01:52:10;;;;;;;36.42;17.20;;;;;;;1.40;66.90;101488.08;1872896;74;21054;-47
2023/01/18 01:54:48;;;;;;;34.23;16.67;;;;;;;1.35;66.78;101485.45;1884284;74;21216;-49
2023/01/18 01:57:28;;;;;;;35.58;16.35;;;;;;;1.33;66.82;101491.49;1885018;74;21230;-49
2023/01/18 02:00:02;;;;;;;36.45;16.52;;;;;;;1.30;66.73;101483.66;1882145;75;21137;-50
2023/01/18 02:02:35;;;;;;;44.95;17.98;;;;;;;1.26;66.80;101487.09;1885430;74;21577;-47
2023/01/18 02:05:06;;;;;;;46.15;21.12;;;;;;;1.21;67.06;101480.97;1888064;74;21054;-48
2023/01/18 02:07:35;;;;;;;28.77;13.20;;;;;;;1.20;67.16;101492.18;1880851;75;21629;-49
2023/01/18 02:10:05;;;;;;;30.35;14.35;;;;;;;1.17;67.25;101489.58;1886474;75;21148;-49
2023/01/18 02:12:37;;;;;;;34.53;14.55;;;;;;;1.14;67.34;101487.80;1888119;74;21162;-47
2023/01/18 02:15:07;;;;;;;28.62;13.28;;;;;;;1.11;67.23;101476.97;1882989;75;21176;-50
2023/01/18 02:17:41;;;;;;;24.55;13.75;;;;;;;1.10;67.21;101477.81;1887937;75;21124;-49
2023/01/18 02:20:33;;;;;;;34.43;14.15;;;;;;;1.09;67.38;101479.97;1868844;75;21133;-47
2023/01/18 02:23:39;;;;;;;25.43;11.93;;;;;;;1.11;67.27;101485.19;1874849;75;21212;-47
2023/01/18 02:26:10;;;;;;;31.68;11.18;;;;;;;1.14;67.26;101481.31;1823280;78;21885;-49
2023/01/18 02:28:42;;;;;;;23.55;10.20;;;;;;;1.11;67.19;101482.59;1891347;75;21444;-51
2023/01/18 02:31:13;;;;;;;25.80;10.93;;;;;;;1.11;67.28;101486.05;1896743;75;21628;-49
2023/01/18 02:33:48;;;;;;;27.20;12.18;;;;;;;1.11;67.25;101487.78;1890188;75;21214;-53
2023/01/18 02:36:42;;;;;;;19.32;10.05;;;;;;;1.09;67.23;101486.46;1892322;75;21074;-50
2023/01/18 02:39:30;;;;;;;25.37;10.35;;;;;;;1.08;67.15;101479.52;1857944;77;21629;-49
2023/01/18 02:47:35;;;;;;;37.00;14.78;;;;;;;1.07;67.36;101486.88;1862391;76;21174;-49
2023/01/18 02:50:04;;;;;;;44.38;14.28;;;;;;;1.06;67.42;101487.71;1865981;76;21071;-46
2023/01/18 02:52:41;;;;;;;32.78;14.55;;;;;;;1.07;67.46;101490.77;1861836;76;21560;-47
2023/01/18 02:55:29;;;;;;;41.25;15.75;;;;;;;1.05;67.59;101488.58;1860171;76;21142;-51
2023/01/18 02:58:00;;;;;;;28.70;14.75;;;;;;;1.06;67.85;101484.25;1865461;76;21156;-48
2023/01/18 03:00:31;;;;;;;40.17;15.40;;;;;;;1.08;67.84;101486.00;1861435;76;21110;-48
2023/01/18 03:03:01;;;;;;;27.37;13.05;;;;;;;1.08;67.75;101488.59;1866066;76;21673;-48
2023/01/18 03:05:31;;;;;;;34.18;12.23;;;;;;;1.09;67.88;101486.46;1857235;76;21626;-47
2023/01/18 03:08:05;;;;;;;24.92;10.85;;;;;;;1.12;67.77;101487.77;1862126;75;21140;-47
2023/01/18 03:10:35;;;;;;;18.00;9.23;;;;;;;1.11;67.67;101489.94;1857917;76;21702;-47
2023/01/18 03:13:08;;;;;;;29.55;10.95;;;;;;;1.13;67.60;101485.63;1862756;76;21428;-46
2023/01/18 03:15:45;;;;;;;25.82;8.45;;;;;;;1.12;67.59;101486.47;1859237;76;21582;-50
2023/01/18 03:18:17;;;;;;;18.20;8.28;;;;;;;1.17;67.65;101489.58;1855515;76;21186;-47
2023/01/18 03:20:50;;;;;;;16.07;7.42;;;;;;;1.20;67.62;101480.50;1847736;76;22350;-48
2023/01/18 03:23:37;;;;;;;16.67;8.43;;;;;;;1.25;67.62;101485.33;1855375;75;21141;-48
2023/01/18 03:26:08;;;;;;;12.18;5.37;;;;;;;1.27;67.68;101491.00;1861805;75;21521;-45
2023/01/18 03:34:48;;;;;;;22.58;8.50;;;;;;;1.33;67.94;101496.68;1861053;76;21178;-45
2023/01/18 03:37:31;;;;;;;15.80;8.03;;;;;;;1.29;67.94;101498.77;1854806;75;21560;-49
2023/01/18 03:40:05;;;;;;;20.83;9.70;;;;;;;1.25;67.88;101502.19;1855874;76;21066;-48
2023/01/18 03:42:49;;;;;;;22.42;7.87;;;;;;;1.27;67.89;101508.27;1852346;76;21235;-46
2023/01/18 03:45:32;;;;;;;15.38;7.40;;;;;;;1.26;67.89;101513.89;1857671;75;21080;-46
2023/01/18 03:48:02;;;;;;;11.05;5.42;;;;;;;1.28;67.85;101507.43;1820349;77;21156;-47
2023/01/18 03:50:43;;;;;;;17.27;6.67;;;;;;;1.27;67.89;101510.86;1833160;77;21041;-47
2023/01/18 03:53:14;;;;;;;16.73;8.38;;;;;;;1.26;67.95;101511.73;1837954;76;21040;-48
2023/01/18 03:55:49;;;;;;;19.40;8.25;;;;;;;1.27;67.87;101518.64;1840494;77;21139;-46
2023/01/18 03:58:23;;;;;;;19.23;9.10;;;;;;;1.26;67.92;101517.78;1809307;77;21152;-49
2023/01/18 04:00:53;;;;;;;22.95;10.58;;;;;;;1.25;67.79;101517.76;1848866;77;21656;-49
2023/01/18 04:03:21;;;;;;;24.05;10.30;;;;;;;1.25;67.87;101509.98;1847347;77;21621;-49
2023/01/18 04:05:50;;;;;;;36.17;21.80;;;;;;;1.23;67.92;101520.77;1834444;77;21062;-48
2023/01/18 04:08:20;;;;;;;45.58;21.97;;;;;;;1.26;67.97;101527.30;1846562;76;21129;-47
2023/01/18 04:10:49;;;;;;;35.30;19.48;;;;;;;1.28;67.95;101530.34;1834880;77;21695;-46
2023/01/18 04:13:18;;;;;;;29.35;16.87;;;;;;;1.28;67.95;101530.78;1838974;77;21131;-46
2023/01/18 04:15:46;;;;;;;35.20;21.30;;;;;;;1.28;67.94;101531.64;1835874;77;21233;-49
2023/01/18 04:18:15;;;;;;;43.17;26.37;;;;;;;1.27;67.95;101530.32;1834415;77;21061;-46
2023/01/18 04:20:44;;;;;;;43.08;27.32;;;;;;;1.26;67.99;101537.67;1842439;76;21246;-49
2023/01/18 04:23:12;;;;;;;42.95;24.98;;;;;;;1.24;68.02;101538.95;1836515;77;21146;-50
2023/01/18 04:25:44;;;;;;;46.30;27.90;;;;;;;1.25;68.07;101539.81;1839368;76;21137;-48
2023/01/18 04:28:12;;;;;;;59.98;37.73;;;;;;;1.22;68.17;101542.36;1838894;76;21239;-47
2023/01/18 04:30:41;;;;;;;69.30;40.10;;;;;;;1.20;68.30;101540.17;1834161;77;21241;-46
2023/01/18 04:33:10;;;;;;;59.80;37.05;;;;;;;1.18;68.31;101540.19;1836933;77;21217;-47
2023/01/18 04:35:38;;;;;;;68.90;39.95;;;;;;;1.18;68.71;101548.37;1837355;77;21177;-47
2023/01/18 04:38:07;;;;;;;59.65;37.45;;;;;;;1.15;68.74;101545.32;1842076;77;21137;-46
2023/01/18 04:40:35;;;;;;;55.38;32.25;;;;;;;1.11;68.73;101541.81;1840787;76;21114;-49
2023/01/18 04:43:04;;;;;;;44.60;25.30;;;;;;;1.09;68.66;101548.71;1833650;77;21124;-48
2023/01/18 04:45:33;;;;;;;40.60;25.10;;;;;;;1.09;68.62;101547.84;1834628;77;21245;-52
2023/01/18 04:48:02;;;;;;;52.60;28.05;;;;;;;1.10;68.50;101549.14;1834497;77;21193;-47
2023/01/18 04:50:30;;;;;;;43.45;22.67;;;;;;;1.10;68.43;101556.92;1834886;77;21159;-46
2023/01/18 04:52:59;;;;;;;21.07;11.70;;;;;;;1.08;68.38;101555.17;1836539;76;21154;-46
2023/01/18 04:55:28;;;;;;;32.70;17.37;;;;;;;1.10;68.32;101555.63;1834900;76;21141;-47
2023/01/18 04:57:56;;;;;;;35.83;18.55;;;;;;;1.11;68.33;101554.78;1837529;77;21095;-48
2023/01/18 05:00:25;;;;;;;36.38;18.70;;;;;;;1.11;68.29;101559.98;1836449;76;21117;-47
2023/01/18 05:02:54;;;;;;;19.90;10.53;;;;;;;1.11;68.18;101561.27;1832417;77;21033;-47
2023/01/18 05:05:22;;;;;;;29.12;14.85;;;;;;;1.08;68.23;101561.22;1835702;77;21151;-46
2023/01/18 05:07:51;;;;;;;16.25;8.48;;;;;;;1.07;68.35;101569.88;1834622;77;21170;-50
2023/01/18 05:10:19;;;;;;;29.65;15.15;;;;;;;1.07;68.51;101563.39;1836717;77;21143;-47
2023/01/18 05:12:48;;;;;;;25.77;14.63;;;;;;;1.15;68.60;101564.34;1835883;77;21143;-50
2023/01/18 05:15:17;;;;;;;18.00;10.88;;;;;;;1.16;68.59;101569.09;1834188;77;21001;-46
2023/01/18 05:17:46;;;;;;;37.13;13.15;;;;;;;1.23;68.73;101562.28;1834038;77;21218;-50
2023/01/18 05:20:20;;;;;;;22.02;11.48;;;;;;;1.39;68.67;101568.10;1835599;77;21169;-51
2023/01/18 05:22:46;;;;;;;18.32;11.10;;;;;;;1.56;68.65;101564.83;1832091;77;21176;-51
2023/01/18 05:25:14;;;;;;;23.50;11.93;;;;;;;1.73;68.80;101572.37;1835571;77;21236;-49
2023/01/18 05:27:43;;;;;;;20.08;10.23;;;;;;;1.94;68.92;101574.33;1835768;77;21051;-47
2023/01/18 05:30:12;;;;;;;27.95;13.03;;;;;;;2.11;69.03;101567.99;1837973;77;21131;-46
2023/01/18 05:32:41;;;;;;;18.45;11.80;;;;;;;2.34;69.02;101573.81;1837596;77;21168;-46
2023/01/18 05:35:10;;;;;;;25.08;11.40;;;;;;;2.61;68.96;101574.02;1834940;77;21141;-47
2023/01/18 05:37:39;;;;;;;22.25;11.10;;;;;;;2.92;68.79;101567.73;1833245;77;21131;-50
2023/01/18 05:40:08;;;;;;;17.35;9.58;;;;;;;3.23;68.51;101570.50;1832996;77;21092;-50
2023/01/18 05:42:37;;;;;;;25.40;11.80;;;;;;;3.59;68.27;101575.39;1840271;76;21140;-47
2023/01/18 05:45:06;;;;;;;23.98;12.43;;;;;;;4.00;67.71;101574.61;1873253;74;21500;-49
2023/01/18 05:47:35;;;;;;;22.55;9.78;;;;;;;4.41;67.03;101567.28;1871635;76;21438;-47
2023/01/18 05:50:04;;;;;;;21.70;11.05;;;;;;;4.91;66.28;101566.33;1884300;75;21221;-46
2023/01/18 05:52:34;;;;;;;27.35;12.73;;;;;;;5.33;65.44;101563.56;1883025;75;21132;-46
2023/01/18 05:55:03;;;;;;;24.67;10.65;;;;;;;5.91;64.68;101567.63;1889335;75;21097;-51
2023/01/18 05:57:31;;;;;;;30.57;13.70;;;;;;;6.49;64.11;101569.84;1875518;75;21140;-49
2023/01/18 06:00:02;;;;;;;28.32;13.03;;;;;;;7.08;63.59;101565.31;1880756;75;21121;-50
2023/01/18 06:02:32;;;;;;;24.82;13.22;;;;;;;7.66;62.92;101563.73;1881353;75;21068;-48
2023/01/18 06:05:00;;;;;;;28.62;13.88;;;;;;;8.05;62.02;101567.52;1882740;74;21230;-46
2023/01/18 06:07:29;;;;;;;27.77;13.53;;;;;;;8.35;61.66;101574.48;1884307;75;21530;-47
2023/01/18 06:09:57;;;;;;;26.17;13.43;;;;;;;8.68;61.14;101577.45;1883880;75;21134;-53
2023/01/18 06:12:26;;;;;;;24.80;14.40;;;;;;;8.96;60.87;101571.70;1884041;74;21161;-50
2023/01/18 06:14:55;;;;;;;24.80;11.97;;;;;;;9.38;60.46;101566.48;1887343;75;21122;-47
2023/01/18 06:17:23;;;;;;;27.62;11.28;;;;;;;9.85;59.84;101564.60;1879204;75;21117;-49
2023/01/18 06:19:52;;;;;;;26.20;10.75;;;;;;;10.31;59.49;101566.17;1886129;75;22085;-46
2023/01/18 06:22:21;;;;;;;21.93;10.43;;;;;;;10.68;58.74;101561.28;1896529;75;21142;-46
2023/01/18 06:24:49;;;;;;;17.20;9.28;;;;;;;11.06;57.89;101561.99;1897360;75;21121;-47
2023/01/18 06:27:18;;;;;;;24.25;10.28;;;;;;;11.46;57.22;101560.86;1896660;75;21133;-45
2023/01/18 06:29:47;;;;;;;24.98;11.35;;;;;;;11.87;56.34;101565.32;1897038;75;21637;-48
2023/01/18 06:32:16;;;;;;;25.88;11.55;;;;;;;12.32;55.86;101570.52;1895369;75;21120;-48
2023/01/18 06:34:44;;;;;;;26.77;11.00;;;;;;;12.99;54.59;101567.81;1904065;74;21042;-51
2023/01/18 06:37:13;;;;;;;21.62;11.15;;;;;;;13.48;53.58;101568.22;1933381;74;21105;-53
2023/01/18 06:39:42;;;;;;;23.05;12.20;;;;;;;13.99;52.91;101566.70;1897358;75;21059;-47
2023/01/18 06:42:11;;;;;;;28.77;12.88;;;;;;;14.35;52.12;101562.13;1897265;75;21199;-49
2023/01/18 06:44:40;;;;;;;26.20;12.00;;;;;;;14.61;51.40;101563.27;1896505;75;21550;-51
2023/01/18 06:47:08;;;;;;;27.10;12.47;;;;;;;14.99;50.67;101566.48;1897282;75;21183;-51
2023/01/18 06:49:37;;;;;;;37.67;15.08;;;;;;;15.40;50.02;101557.99;1893419;74;21054;-49
2023/01/18 06:52:06;;;;;;;33.48;15.95;;;;;;;15.82;49.26;101562.25;1878575;76;21413;-49
2023/01/18 06:54:36;;;;;;;32.95;15.60;;;;;;;16.28;48.36;101563.09;1877316;76;21514;-50
2023/01/18 06:57:04;;;;;;;35.40;14.07;;;;;;;16.64;47.65;101559.53;1878524;76;21579;-50
2023/01/18 06:59:33;;;;;;;35.52;15.32;;;;;;;16.83;46.99;101554.14;1877336;76;21034;-52
2023/01/18 07:02:03;;;;;;;34.35;14.70;;;;;;;16.81;46.99;101548.01;1885691;75;21093;-52
2023/01/18 07:04:36;;;;;;;28.40;14.40;;;;;;;16.94;46.69;101548.26;1863892;76;21113;-50
2023/01/18 07:07:07;;;;;;;30.95;12.82;;;;;;;17.47;46.01;101545.83;1863574;75;21007;-52
2023/01/18 07:09:34;;;;;;;23.25;11.53;;;;;;;18.10;45.33;101537.45;1902785;75;21130;-50
2023/01/18 07:12:03;;;;;;;36.48;14.20;;;;;;;18.44;44.73;101544.78;1909756;75;21086;-53
2023/01/18 07:14:35;;;;;;;32.98;14.80;;;;;;;18.59;44.26;101535.89;1890575;75;21074;-53
2023/01/18 07:17:03;;;;;;;27.40;13.28;;;;;;;18.73;43.59;101541.70;1895142;75;21023;-50
2023/01/18 07:19:32;;;;;;;27.77;13.18;;;;;;;18.76;42.94;101530.86;1911201;75;21098;-50
2023/01/18 07:22:00;;;;;;;30.90;13.30;;;;;;;18.58;42.82;101531.98;1882652;75;21031;-49
2023/01/18 07:24:32;;;;;;;26.00;12.40;;;;;;;18.36;42.95;101533.73;1873490;76;21130;-53
2023/01/18 07:27:04;;;;;;;23.05;11.65;;;;;;;18.37;42.74;101534.98;1876381;75;21123;-50
2023/01/18 07:29:32;;;;;;;28.87;11.80;;;;;;;18.70;42.36;101534.77;1881037;75;21047;-49
2023/01/18 07:32:01;;;;;;;20.52;10.75;;;;;;;19.13;41.71;101526.44;1877054;76;21047;-49
2023/01/18 07:34:30;;;;;;;25.43;12.20;;;;;;;19.43;40.71;101528.48;1878428;75;21051;-52
2023/01/18 07:37:00;;;;;;;25.48;11.33;;;;;;;19.64;40.22;101518.70;1889597;75;21074;-44
2023/01/18 07:39:28;;;;;;;27.55;10.58;;;;;;;19.91;39.61;101512.55;1873096;76;21573;-43
2023/01/18 07:41:57;;;;;;;24.40;9.95;;;;;;;20.22;39.15;101517.55;1869279;75;21064;-46
2023/01/18 07:44:26;;;;;;;20.10;7.33;;;;;;;20.33;38.38;101520.84;1876670;75;21109;-46
2023/01/18 07:46:54;;;;;;;17.55;6.72;;;;;;;20.13;37.09;101516.84;1873635;76;21049;-51
2023/01/18 07:49:25;;;;;;;12.90;5.08;;;;;;;19.64;36.17;101510.23;1867704;76;21192;-50
2023/01/18 07:51:53;;;;;;;13.48;5.70;;;;;;;19.11;35.38;101513.18;1854991;76;21068;-49
2023/01/18 07:54:22;;;;;;;11.03;5.85;;;;;;;18.67;35.02;101512.27;1885791;74;21462;-51
2023/01/18 07:56:58;;;;;;;15.03;5.58;;;;;;;17.95;35.73;101513.88;1920922;75;21030;-49
2023/01/18 07:59:29;;;;;;;17.45;6.92;;;;;;;17.47;36.35;101511.70;1920964;75;21501;-48
2023/01/18 08:01:57;;;;;;;16.55;7.40;;;;;;;17.31;36.72;101513.01;1920913;75;21108;-49
2023/01/18 08:04:25;;;;;;;21.37;7.42;;;;;;;16.98;37.16;101506.77;1920773;75;21112;-49
2023/01/18 08:06:57;;;;;;;16.55;6.35;;;;;;;16.84;37.88;101515.09;1899506;75;21124;-49
2023/01/18 08:09:25;;;;;;;27.58;8.08;;;;;;;16.74;38.38;101506.72;1890391;74;21104;-55
2023/01/18 08:12:06;;;;;;;19.52;7.58;;;;;;;16.26;38.78;101512.30;1899021;74;21116;-56
2023/01/18 08:14:35;;;;;;;13.20;5.20;;;;;;;15.68;39.40;101510.23;1923792;74;21030;-49
2023/01/18 08:17:08;;;;;;;23.02;7.87;;;;;;;15.02;40.15;101513.31;1927703;74;21163;-55
2023/01/18 08:19:39;;;;;;;21.42;7.87;;;;;;;14.36;41.00;101504.25;1926116;74;21097;-55
2023/01/18 08:22:10;;;;;;;31.27;7.80;;;;;;;13.87;41.79;101509.34;1930628;74;21171;-57
2023/01/18 08:24:41;;;;;;;26.80;8.13;;;;;;;13.52;42.42;101505.47;1930550;74;21108;-56
2023/01/18 08:27:09;;;;;;;16.35;7.40;;;;;;;13.30;42.88;101505.40;1930551;74;21155;-57
2023/01/18 08:29:37;;;;;;;21.57;8.20;;;;;;;13.14;43.21;101508.61;1930554;74;21034;-53
2023/01/18 08:32:06;;;;;;;19.60;7.37;;;;;;;13.02;43.52;101506.44;1930528;74;21050;-51
2023/01/18 08:34:35;;;;;;;24.20;8.88;;;;;;;12.89;43.91;101500.73;1930545;74;21034;-49
2023/01/18 08:37:03;;;;;;;16.65;6.10;;;;;;;12.79;44.28;101506.41;1930543;74;21030;-48
2023/01/18 08:39:32;;;;;;;26.33;8.50;;;;;;;12.74;44.46;101503.48;1930589;74;21010;-50
2023/01/18 08:42:00;;;;;;;30.15;9.73;;;;;;;12.83;44.51;101504.91;1927546;74;21117;-53
2023/01/18 08:44:32;;;;;;;29.12;9.80;;;;;;;13.04;44.47;101496.66;1888337;76;21508;-55
2023/01/18 08:47:00;;;;;;;22.50;7.97;;;;;;;13.37;44.19;101495.45;1888233;76;21089;-50
2023/01/18 08:49:31;;;;;;;22.37;6.65;;;;;;;13.55;43.98;101485.95;1888204;75;21160;-48
2023/01/18 08:51:59;;;;;;;17.48;6.65;;;;;;;13.66;43.65;101486.38;1874161;75;21615;-48
2023/01/18 08:54:28;;;;;;;17.80;6.78;;;;;;;14.12;43.01;101479.67;1863690;77;21124;-48
2023/01/18 08:56:56;;;;;;;14.93;6.20;;;;;;;15.18;41.77;101474.55;1863760;77;21041;-49
2023/01/18 08:59:27;;;;;;;14.98;6.92;;;;;;;17.35;39.60;101475.95;1863622;77;21120;-49
2023/01/18 09:01:56;;;;;;;11.35;5.95;;;;;;;18.84;37.56;101470.39;1865587;75;21500;-51
2023/01/18 09:04:26;;;;;;;13.18;6.00;;;;;;;19.27;37.29;101475.22;1863801;77;21120;-52
2023/01/18 09:06:54;;;;;;;11.08;4.40;;;;;;;20.51;35.66;101478.61;1863680;77;21026;-53
2023/01/18 09:09:23;;;;;;;12.45;5.12;;;;;;;21.09;34.68;101471.48;1863881;77;21046;-51
2023/01/18 09:11:52;;;;;;;12.40;4.97;;;;;;;20.23;35.07;101464.47;1863987;77;21045;-52
2023/01/18 09:14:21;;;;;;;15.50;5.05;;;;;;;19.87;35.17;101459.78;1863948;77;21069;-54
2023/01/18 09:16:49;;;;;;;10.18;4.97;;;;;;;20.98;34.34;101461.53;1864048;77;21050;-53
2023/01/18 09:19:18;;;;;;;13.00;5.20;;;;;;;21.72;33.36;101457.52;1863861;77;21073;-55
2023/01/18 09:21:48;;;;;;;9.58;5.20;;;;;;;22.19;32.85;101453.06;1863918;77;21105;-52
2023/01/18 09:24:17;;;;;;;8.00;4.80;;;;;;;23.17;31.60;101450.37;1863890;77;21529;-51
2023/01/18 09:26:49;;;;;;;7.45;4.40;;;;;;;23.63;30.56;101449.27;1863908;77;21070;-51
2023/01/18 09:29:17;;;;;;;10.85;4.33;;;;;;;24.08;29.57;101440.52;1863747;77;21054;-47
2023/01/18 09:31:46;;;;;;;8.90;4.80;;;;;;;23.27;29.98;101440.56;1863999;77;21441;-48
2023/01/18 09:34:17;;;;;;;7.42;4.15;;;;;;;22.81;30.84;101437.53;1863938;77;21137;-47
2023/01/18 09:36:46;;;;;;;8.30;3.85;;;;;;;23.42;30.12;101435.76;1863905;77;21497;-47
2023/01/18 09:39:14;;;;;;;9.48;4.55;;;;;;;24.11;29.30;101434.03;1863902;77;21054;-49
2023/01/18 09:41:46;;;;;;;10.25;4.42;;;;;;;24.21;28.80;101441.66;1863927;77;21062;-51
2023/01/18 09:44:23;;;;;;;11.43;4.80;;;;;;;24.32;28.70;101435.86;1833045;77;21143;-50
2023/01/18 09:47:07;;;;;;;14.10;5.03;;;;;;;24.00;28.82;101434.10;1831812;78;21611;-48
2023/01/18 09:49:38;;;;;;;12.15;4.40;;;;;;;23.12;29.58;101423.37;1832369;78;21082;-49
2023/01/18 09:52:34;;;;;;;15.65;5.62;;;;;;;22.37;30.13;101415.91;1843490;76;21091;-58
2023/01/18 09:55:26;;;;;;;11.20;5.92;;;;;;;21.55;30.82;101414.06;1865481;77;21170;-52
2023/01/18 09:58:18;;;;;;;14.43;6.00;;;;;;;20.52;31.63;101411.25;1865332;77;21122;-56
2023/01/18 10:00:48;;;;;;;19.73;5.97;;;;;;;19.82;32.57;101405.78;1865468;77;21114;-58
2023/01/18 10:03:21;;;;;;;17.52;5.78;;;;;;;19.58;33.09;101401.58;1865250;75;21152;-58
2023/01/18 10:06:14;;;;;;;16.52;5.58;;;;;;;19.58;32.97;101406.42;1865364;76;21145;-49
2023/01/18 10:08:33;;;;;;;9.88;3.75;;;;;;;19.93;32.40;101403.23;1856519;77;21063;-50
2023/01/18 10:11:11;;;;;;;12.53;4.97;;;;;;;19.63;32.00;101389.63;1865491;77;21071;-57
2023/01/18 10:13:56;;;;;;;7.40;3.72;;;;;;;19.36;32.46;101382.11;1865592;75;21384;-56
2023/01/18 10:16:25;;;;;;;9.98;3.42;;;;;;;19.20;32.46;101379.58;1865667;77;21047;-55
2023/01/18 10:18:56;;;;;;;12.10;4.22;;;;;;;19.12;31.93;101380.08;1865318;77;21596;-56
2023/01/18 10:21:56;;;;;;;9.20;3.00;;;;;;;19.08;31.62;101375.91;1865492;77;21047;-55
2023/01/18 10:24:32;;;;;;;5.75;3.10;;;;;;;19.38;31.12;101372.17;1863744;77;21136;-55
2023/01/18 10:27:09;;;;;;;8.05;3.02;;;;;;;20.41;29.48;101378.06;1864002;76;21415;-55
2023/01/18 10:29:40;;;;;;;10.88;3.12;;;;;;;21.00;28.83;101360.54;1866044;75;21530;-56
2023/01/18 10:32:11;;;;;;;5.78;2.52;;;;;;;21.10;28.45;101365.61;1865531;76;21060;-56
2023/01/18 10:34:43;;;;;;;6.42;3.08;;;;;;;21.04;28.39;101356.66;1864632;76;21158;-56
2023/01/18 10:37:23;;;;;;;3.70;1.70;;;;;;;21.08;28.69;101363.53;1865400;77;21019;-57
2023/01/18 10:39:59;;;;;;;6.20;2.77;;;;;;;22.07;27.57;101362.81;1864119;76;21103;-56
2023/01/18 10:42:30;;;;;;;5.12;2.70;;;;;;;22.44;26.85;101363.48;1872784;75;21019;-55
2023/01/18 10:44:59;;;;;;;6.30;2.70;;;;;;;22.57;26.91;101370.06;1901691;74;21202;-50
2023/01/18 10:47:27;;;;;;;5.28;2.60;;;;;;;22.54;27.06;101372.52;1933008;74;21030;-58
2023/01/18 10:50:05;;;;;;;6.15;2.90;;;;;;;22.46;26.95;101371.41;1937558;74;21032;-58
2023/01/18 10:52:37;;;;;;;5.08;2.70;;;;;;;22.60;26.82;101369.83;1933456;74;21594;-48
2023/01/18 10:55:07;;;;;;;3.85;2.37;;;;;;;22.68;26.85;101376.77;1930696;74;21007;-50
2023/01/18 10:57:39;;;;;;;4.17;2.50;;;;;;;22.74;26.37;101372.27;1930526;74;21137;-47
2023/01/18 11:00:20;;;;;;;6.33;2.60;;;;;;;22.50;26.71;101367.50;1930385;74;21116;-51
2023/01/18 11:02:49;;;;;;;2.42;1.75;;;;;;;22.48;27.00;101376.16;1930386;74;21151;-54
2023/01/18 11:05:32;;;;;;;5.92;3.15;;;;;;;22.31;27.32;101379.69;1930541;74;21034;-55
2023/01/18 11:08:24;;;;;;;4.60;2.55;;;;;;;21.94;27.42;101379.84;1930090;74;21543;-49
2023/01/18 11:11:07;;;;;;;5.97;2.17;;;;;;;21.60;28.00;101385.60;1924499;74;21078;-48
2023/01/18 11:13:44;;;;;;;5.08;2.47;;;;;;;21.14;28.77;101383.64;1930708;74;21538;-49
2023/01/18 11:16:19;;;;;;;6.80;3.10;;;;;;;20.77;29.02;101384.48;1930382;74;21054;-50
2023/01/18 11:18:57;;;;;;;5.47;2.62;;;;;;;20.57;29.34;101382.36;1930653;74;21088;-55
2023/01/18 11:21:29;;;;;;;6.80;2.60;;;;;;;20.45;29.32;101380.05;1930495;74;21092;-54
2023/01/18 11:23:59;;;;;;;7.67;1.52;;;;;;;20.38;29.48;101385.45;1930351;74;21042;-56
2023/01/18 11:26:31;;;;;;;7.15;2.25;;;;;;;20.32;29.75;101374.70;1929571;74;21127;-47
2023/01/18 11:29:03;;;;;;;5.00;1.80;;;;;;;20.15;29.06;101390.59;1930474;74;21532;-50
2023/01/18 11:31:44;;;;;;;7.03;1.92;;;;;;;19.88;28.83;101391.99;1930482;74;21038;-47
2023/01/18 11:34:34;;;;;;;4.83;2.72;;;;;;;19.44;29.56;101394.00;1925810;74;21354;-50
2023/01/18 11:37:04;;;;;;;9.65;2.83;;;;;;;19.07;30.14;101391.52;1930362;74;21155;-51
2023/01/18 11:39:37;;;;;;;10.93;2.55;;;;;;;18.83;30.77;101393.50;1930517;74;21442;-50
2023/01/18 11:42:33;;;;;;;6.70;2.60;;;;;;;18.61;30.92;101395.75;1926403;74;21519;-49
2023/01/18 11:45:31;;;;;;;8.85;3.37;;;;;;;18.46;31.32;101404.23;1888183;76;21481;-54
2023/01/18 11:48:37;;;;;;;6.75;3.20;;;;;;;18.41;31.68;101408.52;1888127;76;21108;-49
2023/01/18 11:51:19;;;;;;;6.10;2.12;;;;;;;18.20;31.86;101412.48;1888286;75;21100;-49
2023/01/18 11:54:18;;;;;;;5.35;2.77;;;;;;;17.80;32.38;101428.14;1888065;75;21093;-48
2023/01/18 11:56:54;;;;;;;7.75;1.90;;;;;;;17.47;32.69;101439.81;1887679;75;21082;-50
2023/01/18 11:59:25;;;;;;;6.47;2.62;;;;;;;17.21;33.03;101431.94;1888035;76;21430;-48
2023/01/18 12:02:02;;;;;;;6.12;2.70;;;;;;;16.97;33.30;101439.88;1888171;75;21525;-49
2023/01/18 12:04:46;;;;;;;6.28;2.47;;;;;;;16.79;33.24;101438.20;1886358;76;21116;-49
2023/01/18 12:07:45;;;;;;;7.20;2.35;;;;;;;16.64;33.42;101435.05;1886230;76;21128;-52
2023/01/18 12:10:16;;;;;;;6.42;2.90;;;;;;;16.47;33.39;101447.88;1888148;76;21082;-52
2023/01/18 12:13:14;;;;;;;7.40;3.60;;;;;;;16.31;33.20;101441.19;1884296;76;21231;-51